Xemica — CUIC5 — position and weather

sailwx.info

Track history (hours):
 
Tides and Currents Weather Stations Pressure Air Temp Water Temp Dewpoint Dewpoint Depression Visibility Wind Speed Wind Dir Waves Ship Positions

Xemica

Last reported at 2017-Nov-18 23:34 UTC. Time now 2017-Nov-20 11:56 UTC.
Position N 37°54' W 008°57'.

Length 14 m.

Type: Fishing. MMSI: 263420690.

Date/timePositionNaut miles runAvg speedWind from/ knotsBaromVisibWave heightAir tempDewpointWater temp
2017-Nov-18 23:34N 37°54' W 008°57'0 6.3
2017-Nov-18 23:30N 37°54' W 008°57'4 7.3
2017-Nov-18 23:00N 37°56' W 008°53'32 1.2
2017-Nov-17 20:40N 38°26' W 009°07'0 0.0
2017-Nov-17 20:30N 38°26' W 009°07'0 0.0
2017-Nov-17 17:37N 38°26' W 009°07'0 0.0
2017-Nov-17 17:30N 38°26' W 009°07'0 0.0
2017-Nov-17 17:00N 38°26' W 009°07'0 0.0
2017-Nov-17 16:30N 38°26' W 009°07'0 0.1
2017-Nov-17 16:00N 38°26' W 009°07'3 6.4
2017-Nov-17 15:30N 38°23' W 009°05'4 7.9
2017-Nov-17 15:00N 38°20' W 009°04'4 7.9
2017-Nov-17 14:30N 38°16' W 009°02'4 7.7
2017-Nov-17 14:00N 38°12' W 009°01'6 0.8
2017-Nov-17 06:46N 38°08' W 008°56'0 1.1
2017-Nov-17 06:30N 38°08' W 008°56'1 1.1
2017-Nov-17 06:00N 38°07' W 008°56'2 4.3
2017-Nov-17 05:30N 38°06' W 008°58'1 2.0
2017-Nov-17 05:00N 38°05' W 008°58'1 1.2
2017-Nov-17 04:30N 38°05' W 008°58'1 1.3
2017-Nov-17 04:00N 38°06' W 008°58'1 1.1
2017-Nov-17 03:30N 38°06' W 008°58'2 3.4
2017-Nov-17 03:00N 38°05' W 008°58'1 1.1
2017-Nov-17 02:30N 38°04' W 008°58'1 0.9
2017-Nov-17 01:41N 38°04' W 008°59'0 0.5
2017-Nov-17 01:30N 38°05' W 008°59'0 0.3
2017-Nov-17 01:00N 38°05' W 008°59'0 0.3
2017-Nov-17 00:30N 38°05' W 008°59'4 3.2
2017-Nov-16 23:21N 38°08' W 008°60'1 3.1
2017-Nov-16 23:00N 38°08' W 008°59'1 1.9
2017-Nov-16 22:30N 38°07' W 008°59'0 0.6
2017-Nov-16 22:00N 38°07' W 008°58'0 0.7
2017-Nov-16 21:30N 38°07' W 008°59'1 1.4
2017-Nov-16 20:27N 38°06' W 008°58'8 0.6
2017-Nov-16 06:42N 38°10' W 008°50'0 1.9
2017-Nov-16 06:30N 38°10' W 008°50'1 2.4
2017-Nov-16 06:00N 38°11' W 008°50'2 4.3
2017-Nov-16 05:30N 38°13' W 008°51'2 3.5
2017-Nov-16 05:00N 38°12' W 008°50'16 1.6
2017-Nov-15 18:41N 37°56' W 008°53'1 8.0
2017-Nov-15 18:30N 37°57' W 008°52'2 0.1
2017-Nov-15 04:24N 37°56' W 008°54'2 0.3
2017-Nov-14 22:05N 37°57' W 008°52'0 0.0
2017-Nov-14 22:00N 37°57' W 008°52'0 0.0
2017-Nov-14 21:30N 37°57' W 008°52'1 2.8
2017-Nov-14 21:00N 37°56' W 008°53'5 1.1
2017-Nov-14 16:48N 37°56' W 008°58'10 1.2
2017-Nov-14 08:21N 38°06' W 008°58'2 0.5
2017-Nov-14 04:54N 38°07' W 008°56'11 2.2
2017-Nov-13 23:48N 37°56' W 008°57'2 6.3
2017-Nov-13 23:30N 37°56' W 008°54'2 4.4
2017-Nov-13 23:00N 37°57' W 008°52'0 0.0
2017-Nov-12 19:24N 37°57' W 008°52'1 1.9
2017-Nov-12 19:00N 37°56' W 008°52'3 6.9
2017-Nov-12 18:30N 37°55' W 008°56'2 3.4
2017-Nov-12 18:01N 37°55' W 008°58'4 0.6
2017-Nov-12 11:22N 37°59' W 008°57'4 0.1
2017-Nov-10 23:18N 37°55' W 008°55'2 7.1
2017-Nov-10 23:00N 37°56' W 008°53'6 0.2
2017-Nov-09 23:44N 38°00' W 008°58'0 1.0
2017-Nov-09 23:30N 38°00' W 008°58'1 1.2
2017-Nov-09 23:00N 37°59' W 008°58'1 1.1
2017-Nov-09 22:30N 37°59' W 008°58'3 5.9
2017-Nov-09 22:01N 37°57' W 008°55'  
Track history (hours):
 
Tides and Currents Weather Stations Pressure Air Temp Water Temp Dewpoint Dewpoint Depression Visibility Wind Speed Wind Dir Waves Ship Positions

Xemica

Last reported at 2017-Nov-18 23:34 UTC. Time now 2017-Nov-20 11:56 UTC.
Position N 37°54' W 008°57'.

Length 14 m.

Type: Fishing. MMSI: 263420690.

Date/timePositionNaut miles runAvg speedWind from/ knotsBaromVisibWave heightAir tempDewpointWater temp
2017-Nov-18 23:34N 37°54' W 008°57'0 6.3
2017-Nov-18 23:30N 37°54' W 008°57'4 7.3
2017-Nov-18 23:00N 37°56' W 008°53'32 1.2
2017-Nov-17 20:40N 38°26' W 009°07'0 0.0
2017-Nov-17 20:30N 38°26' W 009°07'0 0.0
2017-Nov-17 17:37N 38°26' W 009°07'0 0.0
2017-Nov-17 17:30N 38°26' W 009°07'0 0.0
2017-Nov-17 17:00N 38°26' W 009°07'0 0.0
2017-Nov-17 16:30N 38°26' W 009°07'0 0.1
2017-Nov-17 16:00N 38°26' W 009°07'3 6.4
2017-Nov-17 15:30N 38°23' W 009°05'4 7.9
2017-Nov-17 15:00N 38°20' W 009°04'4 7.9
2017-Nov-17 14:30N 38°16' W 009°02'4 7.7
2017-Nov-17 14:00N 38°12' W 009°01'6 0.8
2017-Nov-17 06:46N 38°08' W 008°56'0 1.1
2017-Nov-17 06:30N 38°08' W 008°56'1 1.1
2017-Nov-17 06:00N 38°07' W 008°56'2 4.3
2017-Nov-17 05:30N 38°06' W 008°58'1 2.0
2017-Nov-17 05:00N 38°05' W 008°58'1 1.2
2017-Nov-17 04:30N 38°05' W 008°58'1 1.3
2017-Nov-17 04:00N 38°06' W 008°58'1 1.1
2017-Nov-17 03:30N 38°06' W 008°58'2 3.4
2017-Nov-17 03:00N 38°05' W 008°58'1 1.1
2017-Nov-17 02:30N 38°04' W 008°58'1 0.9
2017-Nov-17 01:41N 38°04' W 008°59'0 0.5
2017-Nov-17 01:30N 38°05' W 008°59'0 0.3
2017-Nov-17 01:00N 38°05' W 008°59'0 0.3
2017-Nov-17 00:30N 38°05' W 008°59'4 3.2
2017-Nov-16 23:21N 38°08' W 008°60'1 3.1
2017-Nov-16 23:00N 38°08' W 008°59'1 1.9
2017-Nov-16 22:30N 38°07' W 008°59'0 0.6
2017-Nov-16 22:00N 38°07' W 008°58'0 0.7
2017-Nov-16 21:30N 38°07' W 008°59'1 1.4
2017-Nov-16 20:27N 38°06' W 008°58'8 0.6
2017-Nov-16 06:42N 38°10' W 008°50'0 1.9
2017-Nov-16 06:30N 38°10' W 008°50'1 2.4
2017-Nov-16 06:00N 38°11' W 008°50'2 4.3
2017-Nov-16 05:30N 38°13' W 008°51'2 3.5
2017-Nov-16 05:00N 38°12' W 008°50'16 1.6
2017-Nov-15 18:41N 37°56' W 008°53'1 8.0
2017-Nov-15 18:30N 37°57' W 008°52'2 0.1
2017-Nov-15 04:24N 37°56' W 008°54'2 0.3
2017-Nov-14 22:05N 37°57' W 008°52'0 0.0
2017-Nov-14 22:00N 37°57' W 008°52'0 0.0
2017-Nov-14 21:30N 37°57' W 008°52'1 2.8
2017-Nov-14 21:00N 37°56' W 008°53'5 1.1
2017-Nov-14 16:48N 37°56' W 008°58'10 1.2
2017-Nov-14 08:21N 38°06' W 008°58'2 0.5
2017-Nov-14 04:54N 38°07' W 008°56'11 2.2
2017-Nov-13 23:48N 37°56' W 008°57'2 6.3
2017-Nov-13 23:30N 37°56' W 008°54'2 4.4
2017-Nov-13 23:00N 37°57' W 008°52'0 0.0
2017-Nov-12 19:24N 37°57' W 008°52'1 1.9
2017-Nov-12 19:00N 37°56' W 008°52'3 6.9
2017-Nov-12 18:30N 37°55' W 008°56'2 3.4
2017-Nov-12 18:01N 37°55' W 008°58'4 0.6
2017-Nov-12 11:22N 37°59' W 008°57'4 0.1
2017-Nov-10 23:18N 37°55' W 008°55'2 7.1
2017-Nov-10 23:00N 37°56' W 008°53'6 0.2
2017-Nov-09 23:44N 38°00' W 008°58'0 1.0
2017-Nov-09 23:30N 38°00' W 008°58'1 1.2
2017-Nov-09 23:00N 37°59' W 008°58'1 1.1
2017-Nov-09 22:30N 37°59' W 008°58'3 5.9
2017-Nov-09 22:01N 37°57' W 008°55'  

Dump ship's entire track history